sensor_id;sensor_type;location;lat;lon;timestamp;P1;durP1;ratioP1;P2;durP2;ratioP2
60979;SDS011;46851;49.160;8.980;2023-04-07T00:00:55;19.02;;;10.85;;
60979;SDS011;46851;49.160;8.980;2023-04-07T00:03:21;16.85;;;10.10;;
60979;SDS011;46851;49.160;8.980;2023-04-07T00:05:47;15.75;;;9.70;;
60979;SDS011;46851;49.160;8.980;2023-04-07T00:08:14;16.30;;;9.20;;
60979;SDS011;46851;49.160;8.980;2023-04-07T00:10:40;18.30;;;10.68;;
60979;SDS011;46851;49.160;8.980;2023-04-07T00:13:06;15.35;;;10.05;;
60979;SDS011;46851;49.160;8.980;2023-04-07T00:15:32;18.70;;;10.32;;
60979;SDS011;46851;49.160;8.980;2023-04-07T00:17:58;18.23;;;10.93;;
60979;SDS011;46851;49.160;8.980;2023-04-07T00:20:24;16.05;;;10.35;;
60979;SDS011;46851;49.160;8.980;2023-04-07T00:22:50;15.25;;;10.57;;
60979;SDS011;46851;49.160;8.980;2023-04-07T00:25:16;16.95;;;10.35;;
60979;SDS011;46851;49.160;8.980;2023-04-07T00:27:42;15.85;;;9.50;;
60979;SDS011;46851;49.160;8.980;2023-04-07T00:30:08;15.50;;;9.82;;
60979;SDS011;46851;49.160;8.980;2023-04-07T00:32:34;15.60;;;9.15;;
60979;SDS011;46851;49.160;8.980;2023-04-07T00:35:00;19.48;;;9.82;;
60979;SDS011;46851;49.160;8.980;2023-04-07T00:37:26;16.02;;;9.43;;
60979;SDS011;46851;49.160;8.980;2023-04-07T00:39:52;17.90;;;10.13;;
60979;SDS011;46851;49.160;8.980;2023-04-07T00:42:18;14.82;;;9.45;;
60979;SDS011;46851;49.160;8.980;2023-04-07T00:44:44;16.45;;;9.32;;
60979;SDS011;46851;49.160;8.980;2023-04-07T00:47:10;16.70;;;10.38;;
60979;SDS011;46851;49.160;8.980;2023-04-07T00:49:37;14.70;;;9.45;;
60979;SDS011;46851;49.160;8.980;2023-04-07T00:52:03;16.80;;;10.52;;
60979;SDS011;46851;49.160;8.980;2023-04-07T00:54:30;15.73;;;9.30;;
60979;SDS011;46851;49.160;8.980;2023-04-07T00:56:56;14.70;;;8.95;;
60979;SDS011;46851;49.160;8.980;2023-04-07T00:59:22;14.88;;;8.70;;
60979;SDS011;46851;49.160;8.980;2023-04-07T01:04:20;15.48;;;9.52;;
60979;SDS011;46851;49.160;8.980;2023-04-07T01:06:48;14.57;;;9.57;;
60979;SDS011;46851;49.160;8.980;2023-04-07T01:09:17;14.57;;;8.93;;
60979;SDS011;46851;49.160;8.980;2023-04-07T01:11:49;16.52;;;9.57;;
60979;SDS011;46851;49.160;8.980;2023-04-07T01:14:20;16.30;;;8.73;;
60979;SDS011;46851;49.160;8.980;2023-04-07T01:16:48;19.60;;;9.90;;
60979;SDS011;46851;49.160;8.980;2023-04-07T01:19:15;20.20;;;10.18;;
60979;SDS011;46851;49.160;8.980;2023-04-07T01:21:49;19.90;;;10.40;;
60979;SDS011;46851;49.160;8.980;2023-04-07T01:26:43;15.02;;;8.93;;
60979;SDS011;46851;49.160;8.980;2023-04-07T01:31:55;14.98;;;8.75;;
60979;SDS011;46851;49.160;8.980;2023-04-07T01:34:23;16.20;;;9.45;;
60979;SDS011;46851;49.160;8.980;2023-04-07T01:36:50;14.73;;;8.98;;
60979;SDS011;46851;49.160;8.980;2023-04-07T01:39:17;15.50;;;10.57;;
60979;SDS011;46851;49.160;8.980;2023-04-07T01:41:43;16.35;;;9.63;;
60979;SDS011;46851;49.160;8.980;2023-04-07T01:44:09;16.95;;;10.32;;
60979;SDS011;46851;49.160;8.980;2023-04-07T01:46:35;16.27;;;9.98;;
60979;SDS011;46851;49.160;8.980;2023-04-07T01:49:02;15.15;;;8.93;;
60979;SDS011;46851;49.160;8.980;2023-04-07T01:51:28;15.52;;;9.77;;
60979;SDS011;46851;49.160;8.980;2023-04-07T01:53:56;15.93;;;9.52;;
60979;SDS011;46851;49.160;8.980;2023-04-07T01:56:23;13.85;;;8.95;;
60979;SDS011;46851;49.160;8.980;2023-04-07T01:58:49;17.33;;;9.90;;
60979;SDS011;46851;49.160;8.980;2023-04-07T02:01:15;14.10;;;9.48;;
60979;SDS011;46851;49.160;8.980;2023-04-07T02:06:27;15.85;;;10.07;;
60979;SDS011;46851;49.160;8.980;2023-04-07T02:08:56;15.88;;;9.80;;
60979;SDS011;46851;49.160;8.980;2023-04-07T02:11:23;16.67;;;10.18;;
60979;SDS011;46851;49.160;8.980;2023-04-07T02:13:51;15.07;;;9.63;;
60979;SDS011;46851;49.160;8.980;2023-04-07T02:16:17;17.98;;;9.27;;
60979;SDS011;46851;49.160;8.980;2023-04-07T02:18:43;18.35;;;10.55;;
60979;SDS011;46851;49.160;8.980;2023-04-07T02:21:10;20.13;;;11.50;;
60979;SDS011;46851;49.160;8.980;2023-04-07T02:23:37;19.67;;;11.10;;
60979;SDS011;46851;49.160;8.980;2023-04-07T02:26:03;19.30;;;11.15;;
60979;SDS011;46851;49.160;8.980;2023-04-07T02:28:30;20.27;;;11.38;;
60979;SDS011;46851;49.160;8.980;2023-04-07T02:30:56;22.25;;;12.05;;
60979;SDS011;46851;49.160;8.980;2023-04-07T02:33:22;22.00;;;13.10;;
60979;SDS011;46851;49.160;8.980;2023-04-07T02:35:48;19.25;;;11.65;;
60979;SDS011;46851;49.160;8.980;2023-04-07T02:38:14;23.35;;;13.48;;
60979;SDS011;46851;49.160;8.980;2023-04-07T02:40:40;22.88;;;12.82;;
60979;SDS011;46851;49.160;8.980;2023-04-07T02:43:06;21.23;;;12.27;;
60979;SDS011;46851;49.160;8.980;2023-04-07T02:45:32;21.48;;;13.20;;
60979;SDS011;46851;49.160;8.980;2023-04-07T02:47:58;19.55;;;12.10;;
60979;SDS011;46851;49.160;8.980;2023-04-07T02:50:24;19.95;;;12.18;;
60979;SDS011;46851;49.160;8.980;2023-04-07T02:52:50;23.27;;;13.32;;
60979;SDS011;46851;49.160;8.980;2023-04-07T02:55:16;23.13;;;13.27;;
60979;SDS011;46851;49.160;8.980;2023-04-07T02:57:42;21.75;;;13.57;;
60979;SDS011;46851;49.160;8.980;2023-04-07T03:00:08;21.20;;;12.68;;
60979;SDS011;46851;49.160;8.980;2023-04-07T03:02:34;22.77;;;13.55;;
60979;SDS011;46851;49.160;8.980;2023-04-07T03:05:01;21.40;;;12.73;;
60979;SDS011;46851;49.160;8.980;2023-04-07T03:07:28;26.33;;;13.45;;
60979;SDS011;46851;49.160;8.980;2023-04-07T03:09:55;23.25;;;13.27;;
60979;SDS011;46851;49.160;8.980;2023-04-07T03:12:21;19.35;;;12.02;;
60979;SDS011;46851;49.160;8.980;2023-04-07T03:14:47;22.88;;;12.30;;
60979;SDS011;46851;49.160;8.980;2023-04-07T03:17:13;22.33;;;12.35;;
60979;SDS011;46851;49.160;8.980;2023-04-07T03:19:40;19.83;;;12.02;;
60979;SDS011;46851;49.160;8.980;2023-04-07T03:22:06;22.90;;;12.25;;
60979;SDS011;46851;49.160;8.980;2023-04-07T03:24:31;22.73;;;13.07;;
60979;SDS011;46851;49.160;8.980;2023-04-07T03:26:58;19.88;;;12.15;;
60979;SDS011;46851;49.160;8.980;2023-04-07T03:29:24;19.02;;;12.13;;
60979;SDS011;46851;49.160;8.980;2023-04-07T03:31:49;19.48;;;12.07;;
60979;SDS011;46851;49.160;8.980;2023-04-07T03:34:15;22.00;;;12.57;;
60979;SDS011;46851;49.160;8.980;2023-04-07T03:36:41;21.38;;;12.15;;
60979;SDS011;46851;49.160;8.980;2023-04-07T03:39:07;19.60;;;12.20;;
60979;SDS011;46851;49.160;8.980;2023-04-07T03:41:33;21.58;;;13.02;;
60979;SDS011;46851;49.160;8.980;2023-04-07T03:44:00;22.92;;;12.05;;
60979;SDS011;46851;49.160;8.980;2023-04-07T03:46:26;19.75;;;12.10;;
60979;SDS011;46851;49.160;8.980;2023-04-07T03:48:52;20.17;;;11.60;;
60979;SDS011;46851;49.160;8.980;2023-04-07T03:51:18;16.95;;;11.70;;
60979;SDS011;46851;49.160;8.980;2023-04-07T03:53:44;20.20;;;12.23;;
60979;SDS011;46851;49.160;8.980;2023-04-07T03:56:10;22.25;;;12.23;;
60979;SDS011;46851;49.160;8.980;2023-04-07T03:58:36;19.90;;;12.00;;
60979;SDS011;46851;49.160;8.980;2023-04-07T04:01:02;19.85;;;12.52;;
60979;SDS011;46851;49.160;8.980;2023-04-07T04:03:28;21.17;;;11.93;;
60979;SDS011;46851;49.160;8.980;2023-04-07T04:05:54;18.48;;;11.48;;
60979;SDS011;46851;49.160;8.980;2023-04-07T04:08:20;19.88;;;11.50;;
60979;SDS011;46851;49.160;8.980;2023-04-07T04:10:46;20.58;;;11.70;;
60979;SDS011;46851;49.160;8.980;2023-04-07T04:13:12;20.63;;;11.60;;
60979;SDS011;46851;49.160;8.980;2023-04-07T04:15:38;19.85;;;11.02;;
60979;SDS011;46851;49.160;8.980;2023-04-07T04:18:04;19.75;;;11.10;;
60979;SDS011;46851;49.160;8.980;2023-04-07T04:20:30;18.58;;;11.10;;
60979;SDS011;46851;49.160;8.980;2023-04-07T04:22:56;19.70;;;11.15;;
60979;SDS011;46851;49.160;8.980;2023-04-07T04:25:22;21.10;;;11.52;;
60979;SDS011;46851;49.160;8.980;2023-04-07T04:27:48;20.83;;;11.65;;
60979;SDS011;46851;49.160;8.980;2023-04-07T04:30:15;18.48;;;11.45;;
60979;SDS011;46851;49.160;8.980;2023-04-07T04:32:40;17.40;;;10.98;;
60979;SDS011;46851;49.160;8.980;2023-04-07T04:35:07;19.58;;;10.88;;
60979;SDS011;46851;49.160;8.980;2023-04-07T04:37:33;18.48;;;11.35;;
60979;SDS011;46851;49.160;8.980;2023-04-07T04:39:59;20.50;;;11.43;;
60979;SDS011;46851;49.160;8.980;2023-04-07T04:42:25;17.40;;;10.73;;
60979;SDS011;46851;49.160;8.980;2023-04-07T04:44:52;19.30;;;11.30;;
60979;SDS011;46851;49.160;8.980;2023-04-07T04:47:18;16.20;;;10.98;;
60979;SDS011;46851;49.160;8.980;2023-04-07T04:49:44;17.50;;;10.63;;
60979;SDS011;46851;49.160;8.980;2023-04-07T04:52:10;16.35;;;10.32;;
60979;SDS011;46851;49.160;8.980;2023-04-07T04:54:36;26.30;;;16.27;;
60979;SDS011;46851;49.160;8.980;2023-04-07T04:57:02;21.35;;;10.77;;
60979;SDS011;46851;49.160;8.980;2023-04-07T04:59:28;16.52;;;9.93;;
60979;SDS011;46851;49.160;8.980;2023-04-07T05:01:54;18.50;;;10.23;;
60979;SDS011;46851;49.160;8.980;2023-04-07T05:04:20;18.92;;;10.55;;
60979;SDS011;46851;49.160;8.980;2023-04-07T05:06:46;16.88;;;10.07;;
60979;SDS011;46851;49.160;8.980;2023-04-07T05:09:12;17.35;;;10.05;;
60979;SDS011;46851;49.160;8.980;2023-04-07T05:11:39;17.27;;;10.48;;
60979;SDS011;46851;49.160;8.980;2023-04-07T05:14:06;15.70;;;9.73;;
60979;SDS011;46851;49.160;8.980;2023-04-07T05:16:31;16.45;;;10.38;;
60979;SDS011;46851;49.160;8.980;2023-04-07T05:18:57;16.98;;;10.43;;
60979;SDS011;46851;49.160;8.980;2023-04-07T05:21:23;15.70;;;9.70;;
60979;SDS011;46851;49.160;8.980;2023-04-07T05:23:50;16.83;;;10.52;;
60979;SDS011;46851;49.160;8.980;2023-04-07T05:26:16;17.00;;;9.80;;
60979;SDS011;46851;49.160;8.980;2023-04-07T05:28:42;18.80;;;10.10;;
60979;SDS011;46851;49.160;8.980;2023-04-07T05:31:08;18.60;;;10.77;;
60979;SDS011;46851;49.160;8.980;2023-04-07T05:33:34;16.17;;;9.65;;
60979;SDS011;46851;49.160;8.980;2023-04-07T05:36:00;15.93;;;9.88;;
60979;SDS011;46851;49.160;8.980;2023-04-07T05:38:27;15.80;;;9.98;;
60979;SDS011;46851;49.160;8.980;2023-04-07T05:40:53;16.20;;;10.30;;
60979;SDS011;46851;49.160;8.980;2023-04-07T05:43:19;17.85;;;9.75;;
60979;SDS011;46851;49.160;8.980;2023-04-07T05:45:45;17.48;;;9.80;;
60979;SDS011;46851;49.160;8.980;2023-04-07T05:48:11;20.52;;;10.40;;
60979;SDS011;46851;49.160;8.980;2023-04-07T05:50:37;15.07;;;10.13;;
60979;SDS011;46851;49.160;8.980;2023-04-07T05:53:02;16.95;;;10.02;;
60979;SDS011;46851;49.160;8.980;2023-04-07T05:55:28;17.67;;;10.60;;
60979;SDS011;46851;49.160;8.980;2023-04-07T05:57:55;16.05;;;9.98;;
60979;SDS011;46851;49.160;8.980;2023-04-07T06:00:21;15.73;;;8.80;;
60979;SDS011;46851;49.160;8.980;2023-04-07T06:02:47;14.43;;;9.95;;
60979;SDS011;46851;49.160;8.980;2023-04-07T06:05:13;13.35;;;8.82;;
60979;SDS011;46851;49.160;8.980;2023-04-07T06:07:39;13.25;;;8.93;;
60979;SDS011;46851;49.160;8.980;2023-04-07T06:10:05;10.73;;;7.72;;
60979;SDS011;46851;49.160;8.980;2023-04-07T06:12:31;13.02;;;8.90;;
60979;SDS011;46851;49.160;8.980;2023-04-07T06:14:57;14.40;;;9.15;;
60979;SDS011;46851;49.160;8.980;2023-04-07T06:17:23;12.65;;;8.43;;
60979;SDS011;46851;49.160;8.980;2023-04-07T06:19:49;11.35;;;7.97;;
